createdAt,value
2022-11-17T00:02:01.932Z,4.93
2022-11-17T00:04:31.694Z,4.93
2022-11-17T00:07:01.227Z,4.88
2022-11-17T00:09:30.682Z,4.30
2022-11-17T00:12:18.052Z,4.25
2022-11-17T00:14:51.645Z,4.30
2022-11-17T00:17:21.083Z,4.50
2022-11-17T00:20:03.032Z,4.20
2022-11-17T00:22:33.424Z,4.18
2022-11-17T00:25:02.921Z,4.15
2022-11-17T00:27:34.966Z,4.03
2022-11-17T00:30:04.471Z,4.00
2022-11-17T00:32:46.388Z,3.75
2022-11-17T00:35:16.064Z,3.70
2022-11-17T00:38:05.808Z,3.63
2022-11-17T00:40:35.279Z,3.80
2022-11-17T00:43:07.343Z,4.32
2022-11-17T00:45:36.809Z,3.55
2022-11-17T00:48:06.547Z,3.85
2022-11-17T00:50:36.080Z,4.32
2022-11-17T00:53:05.548Z,4.05
2022-11-17T00:55:35.064Z,3.97
2022-11-17T00:58:07.101Z,4.30
2022-11-17T01:00:36.562Z,3.72
2022-11-17T01:03:06.051Z,3.47
2022-11-17T01:05:37.209Z,3.83
2022-11-17T01:10:37.304Z,4.22
2022-11-17T01:13:09.340Z,3.70
2022-11-17T01:15:38.841Z,3.13
2022-11-17T01:18:08.368Z,3.47
2022-11-17T01:20:37.949Z,3.20
2022-11-17T01:23:07.391Z,3.80
2022-11-17T01:25:38.236Z,3.50
2022-11-17T01:28:10.378Z,3.22
2022-11-17T01:30:39.811Z,2.90
2022-11-17T01:33:09.239Z,3.15
2022-11-17T01:35:38.679Z,3.50
2022-11-17T01:38:08.100Z,3.20
2022-11-17T01:40:37.543Z,3.45
2022-11-17T01:43:11.351Z,3.30
2022-11-17T01:45:40.804Z,3.67
2022-11-17T01:48:10.351Z,3.90
2022-11-17T01:50:40.893Z,3.20
2022-11-17T01:53:11.596Z,3.63
2022-11-17T01:55:42.941Z,3.17
2022-11-17T01:58:15.467Z,3.30
2022-11-17T02:00:44.927Z,3.53
2022-11-17T02:03:14.384Z,3.38
2022-11-17T02:05:47.578Z,3.55
2022-11-17T02:08:33.052Z,3.85
2022-11-17T02:11:03.187Z,3.53
2022-11-17T02:13:35.579Z,3.92
2022-11-17T02:16:05.230Z,3.60
2022-11-17T02:18:34.640Z,3.83
2022-11-17T02:21:15.916Z,4.30
2022-11-17T02:26:41.591Z,3.97
2022-11-17T02:29:16.050Z,4.45
2022-11-17T02:31:48.015Z,4.47
2022-11-17T02:34:21.548Z,4.30
2022-11-17T02:36:53.968Z,4.53
2022-11-17T02:39:25.288Z,4.13
2022-11-17T02:41:57.019Z,4.93
2022-11-17T02:44:28.116Z,4.80
2022-11-17T02:49:28.504Z,4.78
2022-11-17T02:51:59.026Z,4.85
2022-11-17T02:54:30.828Z,5.60
2022-11-17T02:57:00.349Z,6.20
2022-11-17T02:59:33.211Z,6.55
2022-11-17T03:02:22.653Z,6.63
2022-11-17T03:04:59.679Z,6.43
2022-11-17T03:07:37.749Z,5.75
2022-11-17T03:10:13.414Z,5.30
2022-11-17T03:12:45.742Z,5.68
2022-11-17T03:15:24.439Z,5.93
2022-11-17T03:17:57.875Z,5.95
2022-11-17T03:20:28.948Z,6.53
2022-11-17T03:25:28.786Z,6.60
2022-11-17T03:27:59.333Z,7.53
2022-11-17T03:30:36.265Z,6.65
2022-11-17T03:33:09.212Z,6.28
2022-11-17T03:35:40.164Z,6.43
2022-11-17T03:38:10.845Z,5.80
2022-11-17T03:40:41.068Z,5.15
2022-11-17T03:43:10.935Z,5.17
2022-11-17T03:45:43.958Z,6.13
2022-11-17T03:48:15.499Z,5.78
2022-11-17T03:50:46.360Z,6.63
2022-11-17T03:53:16.062Z,6.35
2022-11-17T03:55:47.846Z,5.82
2022-11-17T03:58:18.420Z,4.65
2022-11-17T04:00:51.299Z,5.00
2022-11-17T04:03:20.768Z,5.10
2022-11-17T04:05:50.210Z,5.15
2022-11-17T04:08:26.109Z,5.00
2022-11-17T04:11:22.780Z,5.45
2022-11-17T04:14:04.683Z,4.80
2022-11-17T04:16:36.718Z,4.40
2022-11-17T04:19:06.230Z,4.07
2022-11-17T04:21:35.692Z,4.43
2022-11-17T04:24:05.271Z,3.80
2022-11-17T04:26:47.177Z,3.63
2022-11-17T04:29:17.672Z,3.97
2022-11-17T04:31:49.704Z,4.28
2022-11-17T04:34:19.184Z,3.80
2022-11-17T04:36:48.988Z,3.47
2022-11-17T04:39:18.629Z,3.15
2022-11-17T04:41:54.553Z,3.47
2022-11-17T04:44:25.684Z,3.33
2022-11-17T04:49:27.801Z,3.40
2022-11-17T04:51:57.220Z,3.63
2022-11-17T04:54:27.264Z,3.63
2022-11-17T04:56:57.116Z,3.63
2022-11-17T04:59:26.633Z,3.40
2022-11-17T05:02:04.148Z,3.53
2022-11-17T05:04:47.714Z,3.72
2022-11-17T05:07:17.222Z,4.00
2022-11-17T05:09:46.723Z,4.50
2022-11-17T05:12:43.551Z,3.70
2022-11-17T05:15:33.135Z,3.20
2022-11-17T05:18:02.560Z,3.08
2022-11-17T05:20:32.180Z,3.38
2022-11-17T05:23:14.067Z,2.63
2022-11-17T05:25:43.499Z,3.00
2022-11-17T05:28:13.036Z,2.83
2022-11-17T05:30:42.500Z,2.70
2022-11-17T05:33:14.539Z,2.53
2022-11-17T05:35:44.142Z,2.65
2022-11-17T05:38:13.582Z,2.95
2022-11-17T05:40:43.009Z,2.60
2022-11-17T05:43:12.475Z,2.50
2022-11-17T05:45:41.944Z,2.55
2022-11-17T05:48:13.969Z,2.45
2022-11-17T05:50:43.480Z,2.50
2022-11-17T05:53:13.008Z,2.13
2022-11-17T05:55:42.443Z,2.08
2022-11-17T05:58:14.905Z,2.42
2022-11-17T06:00:44.501Z,2.70
2022-11-17T06:03:19.137Z,2.70
2022-11-17T06:05:48.588Z,2.60
2022-11-17T06:08:18.068Z,3.00
2022-11-17T06:10:47.552Z,2.90
2022-11-17T06:13:17.031Z,3.30
2022-11-17T06:15:46.451Z,2.85
2022-11-17T06:18:19.579Z,3.30
2022-11-17T06:20:49.949Z,3.72
2022-11-17T06:23:19.788Z,4.15
2022-11-17T06:25:49.237Z,4.40
2022-11-17T06:28:19.821Z,3.90
2022-11-17T06:30:49.300Z,3.95
2022-11-17T06:33:21.583Z,4.10
2022-11-17T06:35:51.017Z,3.42
2022-11-17T06:38:20.560Z,4.20
2022-11-17T06:40:51.674Z,3.65
2022-11-17T06:45:51.068Z,3.50
2022-11-17T06:48:27.097Z,4.07
2022-11-17T06:50:56.886Z,3.95
2022-11-17T06:53:26.668Z,4.32
2022-11-17T06:56:03.129Z,4.07
2022-11-17T06:58:33.455Z,4.28
2022-11-17T07:01:07.330Z,5.05
2022-11-17T07:03:40.417Z,4.40
2022-11-17T07:06:10.953Z,5.18
2022-11-17T07:08:42.690Z,4.75
2022-11-17T07:11:13.570Z,4.85
2022-11-17T07:13:43.174Z,4.30
2022-11-17T07:16:14.600Z,4.78
2022-11-17T07:18:48.480Z,4.80
2022-11-17T07:21:18.365Z,4.53
2022-11-17T07:23:48.174Z,4.80
2022-11-17T07:26:17.717Z,5.15
2022-11-17T07:28:47.172Z,5.68
2022-11-17T07:31:16.667Z,5.40
2022-11-17T07:33:50.262Z,5.13
2022-11-17T07:36:19.702Z,4.40
2022-11-17T07:38:49.149Z,4.00
2022-11-17T07:41:18.615Z,4.28
2022-11-17T07:43:48.099Z,4.60
2022-11-17T07:46:17.640Z,4.03
2022-11-17T07:48:49.668Z,4.70
2022-11-17T07:51:19.109Z,5.00
2022-11-17T07:53:48.631Z,3.67
2022-11-17T07:56:18.096Z,3.63
2022-11-17T07:58:47.556Z,3.38
2022-11-17T08:01:17.566Z,3.33
2022-11-17T08:03:49.762Z,3.30
2022-11-17T08:06:19.596Z,3.53
2022-11-17T08:08:49.776Z,3.30
2022-11-17T08:11:19.387Z,3.20
2022-11-17T08:13:50.447Z,3.13
2022-11-17T08:18:52.633Z,3.42
2022-11-17T08:21:22.316Z,4.57
2022-11-17T08:23:52.852Z,5.43
2022-11-17T08:26:24.993Z,5.15
2022-11-17T08:28:58.495Z,4.28
2022-11-17T08:31:28.725Z,3.70
2022-11-17T08:34:00.821Z,3.80
2022-11-17T08:36:30.575Z,3.50
2022-11-17T08:39:00.030Z,3.92
2022-11-17T08:41:29.546Z,4.25
2022-11-17T08:43:59.041Z,4.35
2022-11-17T08:46:28.499Z,4.15
2022-11-17T08:49:00.581Z,3.70
2022-11-17T08:51:30.062Z,3.60
2022-11-17T08:53:59.509Z,4.00
2022-11-17T08:56:29.007Z,3.70
2022-11-17T08:58:58.478Z,3.85
2022-11-17T09:01:28.012Z,2.92
2022-11-17T09:04:00.046Z,2.90
2022-11-17T09:06:29.521Z,2.50
2022-11-17T09:08:59.659Z,3.13
2022-11-17T09:11:29.388Z,2.70
2022-11-17T09:13:58.944Z,3.08
2022-11-17T09:16:28.378Z,2.47
2022-11-17T09:19:00.862Z,2.83
2022-11-17T09:21:30.301Z,3.00
2022-11-17T09:23:59.828Z,2.38
2022-11-17T09:26:29.312Z,2.38
2022-11-17T09:28:58.774Z,2.10
2022-11-17T09:31:28.218Z,2.25
2022-11-17T09:34:04.878Z,2.17
2022-11-17T09:36:34.989Z,2.35
2022-11-17T09:39:04.442Z,2.17
2022-11-17T09:41:36.195Z,2.40
2022-11-17T09:44:12.916Z,2.17
2022-11-17T09:46:54.731Z,2.10
2022-11-17T09:49:33.611Z,2.20
2022-11-17T09:52:04.744Z,2.28
2022-11-17T09:57:06.350Z,2.20
2022-11-17T09:59:35.807Z,2.30
2022-11-17T10:02:05.558Z,2.00
2022-11-17T10:04:37.656Z,1.90
2022-11-17T10:07:07.136Z,2.33
2022-11-17T10:09:38.575Z,2.10
2022-11-17T10:12:16.595Z,2.50
2022-11-17T10:14:46.101Z,2.13
2022-11-17T10:17:15.594Z,2.00
2022-11-17T10:19:47.901Z,2.50
2022-11-17T10:22:24.479Z,2.13
2022-11-17T10:24:55.518Z,2.03
2022-11-17T10:30:02.576Z,2.08
2022-11-17T10:32:32.879Z,2.35
2022-11-17T10:35:20.830Z,1.88
2022-11-17T10:37:55.676Z,2.20
2022-11-17T10:40:26.360Z,2.25
2022-11-17T10:42:58.935Z,2.40
2022-11-17T10:45:28.431Z,2.17
2022-11-17T10:48:10.844Z,2.28
2022-11-17T10:50:45.157Z,2.30
2022-11-17T10:53:25.518Z,2.00
2022-11-17T10:55:57.066Z,2.00
2022-11-17T10:58:27.736Z,1.88
2022-11-17T11:00:58.147Z,2.08
2022-11-17T11:03:28.542Z,1.88
2022-11-17T11:06:05.192Z,1.95
2022-11-17T11:08:41.333Z,2.00
2022-11-17T11:11:14.191Z,1.58
2022-11-17T11:13:45.539Z,1.85
2022-11-17T11:16:17.997Z,1.98
2022-11-17T11:18:47.434Z,1.70
2022-11-17T11:21:21.284Z,1.90
2022-11-17T11:23:54.053Z,1.88
2022-11-17T11:26:33.329Z,1.75
2022-11-17T11:29:12.642Z,1.85
2022-11-17T11:31:48.547Z,1.73
2022-11-17T11:34:27.521Z,1.70
2022-11-17T11:36:59.797Z,1.60
2022-11-17T11:39:34.863Z,1.60
2022-11-17T11:42:16.786Z,1.88
2022-11-17T11:44:59.310Z,1.60
2022-11-17T11:47:45.674Z,1.40
2022-11-17T11:50:16.795Z,1.75
2022-11-17T11:55:23.064Z,1.52
2022-11-17T11:57:54.417Z,1.60
2022-11-17T12:00:24.401Z,1.10
2022-11-17T12:02:55.916Z,1.40
2022-11-17T12:05:29.261Z,1.50
2022-11-17T12:08:10.411Z,1.77
2022-11-17T12:10:42.167Z,1.33
2022-11-17T12:13:15.144Z,1.58
2022-11-17T12:15:44.681Z,1.70
2022-11-17T12:18:15.746Z,1.63
2022-11-17T12:23:30.748Z,1.50
2022-11-17T12:26:00.966Z,1.50
2022-11-17T12:28:35.716Z,1.67
2022-11-17T12:31:10.017Z,1.55
2022-11-17T12:34:12.258Z,1.50
2022-11-17T12:36:41.922Z,1.60
2022-11-17T12:39:49.016Z,1.40
2022-11-17T12:42:18.483Z,1.40
2022-11-17T12:44:59.204Z,1.42
2022-11-17T12:47:29.522Z,1.58
2022-11-17T12:50:29.807Z,1.60
2022-11-17T12:53:31.093Z,1.60
2022-11-17T12:56:18.343Z,1.55
2022-11-17T12:58:57.526Z,1.75
2022-11-17T13:01:29.416Z,1.67
2022-11-17T13:04:02.049Z,1.65
2022-11-17T13:06:36.291Z,1.70
2022-11-17T13:09:08.036Z,1.58
2022-11-17T13:11:40.184Z,1.67
2022-11-17T13:14:11.536Z,1.33
2022-11-17T13:16:46.593Z,1.50
2022-11-17T13:19:32.848Z,1.40
2022-11-17T13:22:03.750Z,1.40
2022-11-17T13:24:34.535Z,1.42
2022-11-17T13:27:07.520Z,1.50
2022-11-17T13:29:37.877Z,1.30
2022-11-17T13:32:15.638Z,1.50
2022-11-17T13:34:49.856Z,1.30
2022-11-17T13:37:20.486Z,1.50
2022-11-17T13:40:00.530Z,1.45
2022-11-17T13:42:33.764Z,1.50
2022-11-17T13:45:04.896Z,1.52
2022-11-17T13:50:25.370Z,1.67
2022-11-17T13:52:56.133Z,1.70
2022-11-17T13:55:25.830Z,1.63
2022-11-17T13:58:01.997Z,1.42
2022-11-17T14:00:31.536Z,1.70
2022-11-17T14:03:01.696Z,1.70
2022-11-17T14:05:31.217Z,1.80
2022-11-17T14:08:01.510Z,1.83
2022-11-17T14:10:35.834Z,1.80
2022-11-17T14:13:22.998Z,2.08
2022-11-17T14:16:02.115Z,1.77
2022-11-17T14:18:34.270Z,2.08
2022-11-17T14:21:08.109Z,2.00
2022-11-17T14:23:37.715Z,2.17
2022-11-17T14:26:07.587Z,1.80
2022-11-17T14:28:39.647Z,1.85
2022-11-17T14:31:12.967Z,1.60
2022-11-17T14:33:42.462Z,1.40
2022-11-17T14:36:13.338Z,1.48
2022-11-17T14:38:42.799Z,1.45
2022-11-17T14:41:12.271Z,1.27
2022-11-17T14:43:44.333Z,1.50
2022-11-17T14:46:18.506Z,1.20
2022-11-17T14:48:48.221Z,1.40
2022-11-17T14:51:17.819Z,2.10
2022-11-17T14:53:48.035Z,1.70
2022-11-17T14:56:18.293Z,1.20
2022-11-17T14:58:50.746Z,2.33
2022-11-17T15:01:24.197Z,2.08
2022-11-17T15:03:55.339Z,2.05
2022-11-17T15:06:24.869Z,1.95
2022-11-17T15:08:58.385Z,1.45
2022-11-17T15:11:28.796Z,1.40
2022-11-17T15:14:03.781Z,1.40
2022-11-17T15:16:33.212Z,1.23
2022-11-17T15:19:02.818Z,1.40
2022-11-17T15:21:32.543Z,1.55
2022-11-17T15:24:02.021Z,1.63
2022-11-17T15:26:31.523Z,2.03
2022-11-17T15:29:03.682Z,1.90
2022-11-17T15:31:33.123Z,2.60
2022-11-17T15:34:03.651Z,2.20
2022-11-17T15:36:35.878Z,1.40
2022-11-17T15:39:05.583Z,1.60
2022-11-17T15:41:35.089Z,1.48
2022-11-17T15:44:07.408Z,1.10
2022-11-17T15:46:36.888Z,1.30
2022-11-17T15:49:06.814Z,1.30
2022-11-17T15:51:36.252Z,1.50
2022-11-17T15:54:05.743Z,1.60
2022-11-17T15:56:38.030Z,1.40
2022-11-17T15:59:10.060Z,1.60
2022-11-17T16:01:39.952Z,1.60
2022-11-17T16:04:10.240Z,1.63
2022-11-17T16:06:41.202Z,1.70
2022-11-17T16:09:11.905Z,1.73
2022-11-17T16:11:41.565Z,2.10
2022-11-17T16:14:14.935Z,1.88
2022-11-17T16:16:46.028Z,2.28
2022-11-17T16:19:15.784Z,3.05
2022-11-17T16:21:45.713Z,2.40
2022-11-17T16:24:15.289Z,2.95
2022-11-17T16:26:45.787Z,6.00
2022-11-17T16:29:18.114Z,4.72
2022-11-17T16:31:47.702Z,4.00
2022-11-17T16:34:18.920Z,3.60
2022-11-17T16:36:48.343Z,2.97
2022-11-17T16:39:20.209Z,2.88
2022-11-17T16:41:50.201Z,2.10
2022-11-17T16:44:22.341Z,1.77
2022-11-17T16:46:52.392Z,1.70
2022-11-17T16:49:22.342Z,2.00
2022-11-17T16:51:52.552Z,1.77
2022-11-17T16:54:22.376Z,2.20
2022-11-17T16:56:52.164Z,2.17
2022-11-17T16:59:24.238Z,1.90
2022-11-17T17:01:53.719Z,2.30
2022-11-17T17:04:23.210Z,2.20
2022-11-17T17:06:52.720Z,2.30
2022-11-17T17:09:27.714Z,2.67
2022-11-17T17:11:57.572Z,2.85
2022-11-17T17:14:29.843Z,3.45
2022-11-17T17:16:59.832Z,4.20
2022-11-17T17:19:29.323Z,3.67
2022-11-17T17:21:59.272Z,2.83
2022-11-17T17:24:28.774Z,3.03
2022-11-17T17:26:58.227Z,3.08
2022-11-17T17:29:30.394Z,3.30
2022-11-17T17:31:59.798Z,3.30
2022-11-17T17:34:29.621Z,3.30
2022-11-17T17:36:59.038Z,5.65
2022-11-17T17:39:29.070Z,5.22
2022-11-17T17:41:58.544Z,4.57
2022-11-17T17:44:30.588Z,5.20
2022-11-17T17:47:00.011Z,7.38
2022-11-17T17:49:29.431Z,7.53
2022-11-17T17:51:59.117Z,8.43
2022-11-17T17:54:28.574Z,9.98
2022-11-17T17:56:58.393Z,11.02
2022-11-17T17:59:30.473Z,9.18
2022-11-17T18:01:59.990Z,8.90
2022-11-17T18:04:29.564Z,8.38
2022-11-17T18:07:00.300Z,12.93
2022-11-17T18:09:29.875Z,11.63
2022-11-17T18:11:59.368Z,11.77
2022-11-17T18:14:31.441Z,12.77
2022-11-17T18:17:00.941Z,8.00
2022-11-17T18:19:33.166Z,9.57
2022-11-17T18:22:03.047Z,8.23
2022-11-17T18:24:32.614Z,8.50
2022-11-17T18:27:02.070Z,7.60
2022-11-17T18:29:34.100Z,6.22
2022-11-17T18:32:03.589Z,6.60
2022-11-17T18:34:33.303Z,5.97
2022-11-17T18:37:02.753Z,4.97
2022-11-17T18:39:33.451Z,5.18
2022-11-17T18:42:02.918Z,4.45
2022-11-17T18:44:34.948Z,7.50
2022-11-17T18:47:04.417Z,5.43
2022-11-17T18:49:34.641Z,5.38
2022-11-17T18:52:04.470Z,6.90
2022-11-17T18:54:33.913Z,6.20
2022-11-17T18:57:03.367Z,5.55
2022-11-17T18:59:35.457Z,6.50
2022-11-17T19:02:04.920Z,7.13
2022-11-17T19:04:34.368Z,6.68
2022-11-17T19:07:03.964Z,9.73
2022-11-17T19:09:33.465Z,19.98
2022-11-17T19:12:02.945Z,10.05
2022-11-17T19:14:34.987Z,9.88
2022-11-17T19:17:04.422Z,9.27
2022-11-17T19:19:35.313Z,14.95
2022-11-17T19:22:04.737Z,13.07
2022-11-17T19:24:34.237Z,16.45
2022-11-17T19:27:03.872Z,14.38
2022-11-17T19:29:38.190Z,12.32
2022-11-17T19:32:08.110Z,12.70
2022-11-17T19:34:37.557Z,12.27
2022-11-17T19:37:07.055Z,15.00
2022-11-17T19:39:36.971Z,8.82
2022-11-17T19:42:06.582Z,7.50
2022-11-17T19:44:38.696Z,6.93
2022-11-17T19:47:09.780Z,7.60
2022-11-17T19:52:08.476Z,5.00
2022-11-17T19:54:37.921Z,7.32
2022-11-17T19:57:07.412Z,5.70
2022-11-17T19:59:39.509Z,5.43
2022-11-17T20:02:09.034Z,7.45
2022-11-17T20:04:38.520Z,7.50
2022-11-17T20:07:08.111Z,7.00
2022-11-17T20:09:37.702Z,5.63
2022-11-17T20:12:07.994Z,5.45
2022-11-17T20:14:40.071Z,5.60
2022-11-17T20:17:09.744Z,10.63
2022-11-17T20:19:39.365Z,6.13
2022-11-17T20:22:09.417Z,5.07
2022-11-17T20:24:39.056Z,4.68
2022-11-17T20:27:08.585Z,5.93
2022-11-17T20:29:40.618Z,6.70
2022-11-17T20:32:10.075Z,4.85
2022-11-17T20:34:39.896Z,4.68
2022-11-17T20:37:09.424Z,4.00
2022-11-17T20:39:38.868Z,5.20
2022-11-17T20:42:08.381Z,4.72
2022-11-17T20:44:40.456Z,5.03
2022-11-17T20:47:09.955Z,5.13
2022-11-17T20:49:39.509Z,7.00
2022-11-17T20:52:13.204Z,5.75
2022-11-17T20:54:43.060Z,5.10
2022-11-17T20:57:12.565Z,5.13
2022-11-17T20:59:45.282Z,5.65
2022-11-17T21:02:14.788Z,5.03
2022-11-17T21:04:44.863Z,4.88
2022-11-17T21:07:14.379Z,8.73
2022-11-17T21:09:44.142Z,15.25
2022-11-17T21:12:13.629Z,8.00
2022-11-17T21:14:45.661Z,7.85
2022-11-17T21:17:35.350Z,6.20
2022-11-17T21:20:04.873Z,6.88
2022-11-17T21:22:34.320Z,4.90
2022-11-17T21:25:04.128Z,5.07
2022-11-17T21:27:33.620Z,4.93
2022-11-17T21:30:05.752Z,4.55
2022-11-17T21:32:35.286Z,4.40
2022-11-17T21:35:06.228Z,4.03
2022-11-17T21:37:35.735Z,4.32
2022-11-17T21:40:05.535Z,4.78
2022-11-17T21:42:35.603Z,4.40
2022-11-17T21:45:08.674Z,4.75
2022-11-17T21:47:38.202Z,7.05
2022-11-17T21:50:08.767Z,5.93
2022-11-17T21:52:38.277Z,5.00
2022-11-17T21:55:08.890Z,4.63
2022-11-17T21:57:38.356Z,4.70
2022-11-17T22:00:12.238Z,4.00
2022-11-17T22:02:41.757Z,4.10
2022-11-17T22:05:11.659Z,3.38
2022-11-17T22:07:41.172Z,5.57
2022-11-17T22:10:11.918Z,7.97
2022-11-17T22:12:41.375Z,7.47
2022-11-17T22:15:13.541Z,7.55
2022-11-17T22:17:43.015Z,5.93
2022-11-17T22:20:12.806Z,6.25
2022-11-17T22:22:42.271Z,6.78
2022-11-17T22:25:43.143Z,4.43
2022-11-17T22:28:01.779Z,4.05
2022-11-17T22:30:33.815Z,2.92
2022-11-17T22:33:03.270Z,2.60
2022-11-17T22:35:33.738Z,2.40
2022-11-17T22:38:03.215Z,2.17
2022-11-17T22:40:32.924Z,2.20
2022-11-17T22:43:04.590Z,2.30
2022-11-17T22:45:38.627Z,2.40
2022-11-17T22:48:09.060Z,2.80
2022-11-17T22:50:38.793Z,2.60
2022-11-17T22:53:08.502Z,4.40
2022-11-17T22:55:37.953Z,4.28
2022-11-17T22:58:07.428Z,4.43
2022-11-17T23:00:39.490Z,4.07
2022-11-17T23:03:09.009Z,4.40
2022-11-17T23:05:38.514Z,4.20
2022-11-17T23:08:10.041Z,3.70
2022-11-17T23:10:39.927Z,3.15
2022-11-17T23:13:09.399Z,3.15
2022-11-17T23:15:43.416Z,3.13
2022-11-17T23:18:12.879Z,3.10
2022-11-17T23:20:42.364Z,4.10
2022-11-17T23:23:11.845Z,6.22
2022-11-17T23:25:41.542Z,6.18
2022-11-17T23:28:10.996Z,4.90
2022-11-17T23:30:43.084Z,4.95
2022-11-17T23:33:12.563Z,6.07
2022-11-17T23:35:41.975Z,8.82
2022-11-17T23:38:11.599Z,9.90
2022-11-17T23:40:41.052Z,10.15
2022-11-17T23:43:10.539Z,11.88
2022-11-17T23:45:40.022Z,10.02
2022-11-17T23:48:12.134Z,8.45
2022-11-17T23:50:41.584Z,8.43
2022-11-17T23:53:11.057Z,8.98
2022-11-17T23:55:40.620Z,9.43
2022-11-17T23:58:10.051Z,8.35
